createdAt,value
2023-03-19T00:00:56.151Z,100.00
2023-03-19T00:03:23.745Z,100.00
2023-03-19T00:05:53.092Z,100.00
2023-03-19T00:08:20.928Z,100.00
2023-03-19T00:10:48.525Z,100.00
2023-03-19T00:13:16.356Z,100.00
2023-03-19T00:15:47.150Z,100.00
2023-03-19T00:18:15.174Z,100.00
2023-03-19T00:20:44.737Z,100.00
2023-03-19T00:23:12.596Z,100.00
2023-03-19T00:25:42.071Z,100.00
2023-03-19T00:28:10.097Z,100.00
2023-03-19T00:30:37.795Z,100.00
2023-03-19T00:33:08.063Z,100.00
2023-03-19T00:35:36.249Z,100.00
2023-03-19T00:38:04.606Z,100.00
2023-03-19T00:40:34.815Z,100.00
2023-03-19T00:43:02.448Z,100.00
2023-03-19T00:45:30.876Z,100.00
2023-03-19T00:47:59.019Z,100.00
2023-03-19T00:50:28.546Z,100.00
2023-03-19T00:52:57.106Z,100.00
2023-03-19T00:55:25.543Z,100.00
2023-03-19T00:57:53.171Z,100.00
2023-03-19T01:00:21.612Z,100.00
2023-03-19T01:02:49.286Z,100.00
2023-03-19T01:05:18.252Z,100.00
2023-03-19T01:07:47.886Z,100.00
2023-03-19T01:10:16.811Z,100.00
2023-03-19T01:12:44.515Z,100.00
2023-03-19T01:15:13.642Z,100.00
2023-03-19T01:17:42.268Z,100.00
2023-03-19T01:20:13.156Z,100.00
2023-03-19T01:22:42.806Z,100.00
2023-03-19T01:25:16.015Z,100.00
2023-03-19T01:27:53.528Z,100.00
2023-03-19T01:30:21.791Z,100.00
2023-03-19T01:33:27.947Z,100.00
2023-03-19T01:36:05.284Z,100.00
2023-03-19T01:38:51.651Z,100.00
2023-03-19T01:41:21.652Z,100.00
2023-03-19T01:43:51.048Z,100.00
2023-03-19T01:46:39.349Z,100.00
2023-03-19T01:49:28.513Z,100.00
2023-03-19T01:52:16.890Z,100.00
2023-03-19T01:55:17.885Z,100.00
2023-03-19T01:58:08.712Z,100.00
2023-03-19T02:00:59.112Z,100.00
2023-03-19T02:03:27.979Z,100.00
2023-03-19T02:06:06.230Z,100.00
2023-03-19T02:08:34.838Z,100.00
2023-03-19T02:11:02.615Z,100.00
2023-03-19T02:13:32.061Z,100.00
2023-03-19T02:15:59.809Z,100.00
2023-03-19T02:18:27.631Z,100.00
2023-03-19T02:21:01.883Z,100.00
2023-03-19T02:23:39.359Z,100.00
2023-03-19T02:26:17.964Z,100.00
2023-03-19T02:28:50.053Z,100.00
2023-03-19T02:31:25.835Z,100.00
2023-03-19T02:33:58.634Z,100.00
2023-03-19T02:36:30.730Z,100.00
2023-03-19T02:39:01.986Z,100.00
2023-03-19T02:41:33.373Z,100.00
2023-03-19T02:44:27.820Z,100.00
2023-03-19T02:46:55.827Z,100.00
2023-03-19T02:49:25.160Z,100.00
2023-03-19T02:51:52.896Z,100.00
2023-03-19T02:54:21.081Z,100.00
2023-03-19T02:56:52.294Z,100.00
2023-03-19T02:59:20.610Z,100.00
2023-03-19T03:01:48.622Z,100.00
2023-03-19T03:04:16.654Z,100.00
2023-03-19T03:06:45.658Z,100.00
2023-03-19T03:09:14.004Z,100.00
2023-03-19T03:11:42.810Z,100.00
2023-03-19T03:14:12.871Z,100.00
2023-03-19T03:16:41.845Z,100.00
2023-03-19T03:19:09.521Z,100.00
2023-03-19T03:21:37.208Z,100.00
2023-03-19T03:24:05.806Z,100.00
2023-03-19T03:26:38.717Z,100.00
2023-03-19T03:29:08.091Z,100.00
2023-03-19T03:31:37.242Z,100.00
2023-03-19T03:34:05.802Z,100.00
2023-03-19T03:36:33.922Z,100.00
2023-03-19T03:39:01.759Z,100.00
2023-03-19T03:41:34.071Z,100.00
2023-03-19T03:44:03.274Z,100.00
2023-03-19T03:46:34.908Z,100.00
2023-03-19T03:49:04.680Z,100.00
2023-03-19T03:51:32.823Z,100.00
2023-03-19T03:54:02.275Z,100.00
2023-03-19T03:56:31.341Z,100.00
2023-03-19T03:58:59.808Z,100.00
2023-03-19T04:01:28.140Z,100.00
2023-03-19T04:03:57.878Z,100.00
2023-03-19T04:06:28.866Z,100.00
2023-03-19T04:09:22.360Z,100.00
2023-03-19T04:11:51.804Z,100.00
2023-03-19T04:14:20.231Z,100.00
2023-03-19T04:16:48.902Z,100.00
2023-03-19T04:19:16.879Z,100.00
2023-03-19T04:21:45.895Z,100.00
2023-03-19T04:24:14.181Z,100.00
2023-03-19T04:26:42.145Z,100.00
2023-03-19T04:29:09.780Z,100.00
2023-03-19T04:31:38.514Z,100.00
2023-03-19T04:34:07.010Z,100.00
2023-03-19T04:36:35.509Z,100.00
2023-03-19T04:39:04.828Z,100.00
2023-03-19T04:41:34.949Z,100.00
2023-03-19T04:44:21.772Z,100.00
2023-03-19T04:46:49.908Z,100.00
2023-03-19T04:49:20.721Z,100.00
2023-03-19T04:51:51.473Z,100.00
2023-03-19T04:54:20.709Z,100.00
2023-03-19T04:56:48.661Z,100.00
2023-03-19T04:59:17.154Z,100.00
2023-03-19T05:01:44.810Z,100.00
2023-03-19T05:04:13.946Z,100.00
2023-03-19T05:06:42.198Z,100.00
2023-03-19T05:09:09.981Z,100.00
2023-03-19T05:11:38.979Z,100.00
2023-03-19T05:14:12.474Z,100.00
2023-03-19T05:16:58.960Z,100.00
2023-03-19T05:19:41.345Z,100.00
2023-03-19T05:22:10.259Z,100.00
2023-03-19T05:24:39.316Z,100.00
2023-03-19T05:27:10.203Z,100.00
2023-03-19T05:29:43.938Z,100.00
2023-03-19T05:32:24.099Z,100.00
2023-03-19T05:34:52.222Z,100.00
2023-03-19T05:37:21.647Z,100.00
2023-03-19T05:39:56.814Z,100.00
2023-03-19T05:42:25.901Z,100.00
2023-03-19T05:44:57.295Z,100.00
2023-03-19T05:47:28.907Z,100.00
2023-03-19T05:49:59.296Z,100.00
2023-03-19T05:52:27.271Z,100.00
2023-03-19T05:54:58.145Z,100.00
2023-03-19T05:57:38.896Z,100.00
2023-03-19T06:00:15.957Z,100.00
2023-03-19T06:02:45.896Z,100.00
2023-03-19T06:05:32.913Z,100.00
2023-03-19T06:08:10.814Z,100.00
2023-03-19T06:10:56.902Z,100.00
2023-03-19T06:13:27.814Z,100.00
2023-03-19T06:16:00.270Z,100.00
2023-03-19T06:18:33.373Z,100.00
2023-03-19T06:21:06.032Z,100.00
2023-03-19T06:23:34.794Z,100.00
2023-03-19T06:26:06.865Z,100.00
2023-03-19T06:28:46.084Z,100.00
2023-03-19T06:31:14.535Z,100.00
2023-03-19T06:33:54.309Z,100.00
2023-03-19T06:36:24.808Z,100.00
2023-03-19T06:38:52.720Z,100.00
2023-03-19T06:41:21.190Z,100.00
2023-03-19T06:43:52.307Z,100.00
2023-03-19T06:46:20.730Z,100.00
2023-03-19T06:48:49.643Z,100.00
2023-03-19T06:51:18.852Z,100.00
2023-03-19T06:53:46.400Z,100.00
2023-03-19T06:56:14.234Z,100.00
2023-03-19T06:58:43.288Z,100.00
2023-03-19T07:01:12.334Z,100.00
2023-03-19T07:03:39.917Z,100.00
2023-03-19T07:06:07.868Z,100.00
2023-03-19T07:08:36.228Z,100.00
2023-03-19T07:11:05.807Z,100.00
2023-03-19T07:13:33.550Z,100.00
2023-03-19T07:16:01.883Z,100.00
2023-03-19T07:18:31.521Z,100.00
2023-03-19T07:20:59.353Z,100.00
2023-03-19T07:23:27.106Z,100.00
2023-03-19T07:25:55.659Z,100.00
2023-03-19T07:28:23.809Z,100.00
2023-03-19T07:30:52.517Z,100.00
2023-03-19T07:33:20.963Z,100.00
2023-03-19T07:35:50.849Z,100.00
2023-03-19T07:38:18.473Z,100.00
2023-03-19T07:41:01.503Z,100.00
2023-03-19T07:43:30.797Z,100.00
2023-03-19T07:45:59.995Z,100.00
2023-03-19T07:48:27.697Z,100.00
2023-03-19T07:50:57.610Z,100.00
2023-03-19T07:53:26.022Z,100.00
2023-03-19T07:55:54.256Z,100.00
2023-03-19T07:58:22.339Z,100.00
2023-03-19T08:00:50.949Z,100.00
2023-03-19T08:03:19.921Z,100.00
2023-03-19T08:05:50.481Z,100.00
2023-03-19T08:08:19.797Z,100.00
2023-03-19T08:10:50.659Z,100.00
2023-03-19T08:13:18.830Z,100.00
2023-03-19T08:15:46.890Z,100.00
2023-03-19T08:18:15.468Z,100.00
2023-03-19T08:20:45.028Z,100.00
2023-03-19T08:23:16.157Z,100.00
2023-03-19T08:25:45.369Z,100.00
2023-03-19T08:28:16.346Z,100.00
2023-03-19T08:30:46.019Z,100.00
2023-03-19T08:36:07.263Z,100.00
2023-03-19T08:38:35.906Z,100.00
2023-03-19T08:41:06.150Z,100.00
2023-03-19T08:43:36.581Z,100.00
2023-03-19T08:46:05.005Z,100.00
2023-03-19T08:48:33.226Z,100.00
2023-03-19T08:51:03.727Z,100.00
2023-03-19T08:53:32.483Z,100.00
2023-03-19T08:56:01.821Z,100.00
2023-03-19T08:58:30.863Z,100.00
2023-03-19T09:01:03.006Z,100.00
2023-03-19T09:03:31.994Z,100.00
2023-03-19T09:06:01.512Z,100.00
2023-03-19T09:08:30.617Z,100.00
2023-03-19T09:10:59.883Z,100.00
2023-03-19T09:13:28.672Z,100.00
2023-03-19T09:15:57.918Z,100.00
2023-03-19T09:18:27.896Z,100.00
2023-03-19T09:20:56.838Z,100.00
2023-03-19T09:23:24.484Z,100.00
2023-03-19T09:25:55.845Z,100.00
2023-03-19T09:28:24.897Z,100.00
2023-03-19T09:30:52.980Z,100.00
2023-03-19T09:33:22.220Z,100.00
2023-03-19T09:35:52.448Z,100.00
2023-03-19T09:38:20.942Z,100.00
2023-03-19T09:40:51.832Z,100.00
2023-03-19T09:43:39.905Z,100.00
2023-03-19T09:46:15.766Z,100.00
2023-03-19T09:48:50.821Z,100.00
2023-03-19T09:51:24.161Z,100.00
2023-03-19T09:53:57.993Z,100.00
2023-03-19T09:56:27.861Z,100.00
2023-03-19T09:58:55.663Z,100.00
2023-03-19T10:01:28.953Z,100.00
2023-03-19T10:04:16.363Z,100.00
2023-03-19T10:06:45.468Z,100.00
2023-03-19T10:09:33.856Z,100.00
2023-03-19T10:12:11.838Z,100.00
2023-03-19T10:15:08.715Z,100.00
2023-03-19T10:17:40.822Z,100.00
2023-03-19T10:20:21.238Z,100.00
2023-03-19T10:22:54.563Z,100.00
2023-03-19T10:25:25.954Z,100.00
2023-03-19T10:28:00.272Z,100.00
2023-03-19T10:30:32.657Z,100.00
2023-03-19T10:33:09.020Z,100.00
2023-03-19T10:35:42.968Z,100.00
2023-03-19T10:38:21.140Z,100.00
2023-03-19T10:41:04.851Z,100.00
2023-03-19T10:43:34.809Z,100.00
2023-03-19T10:46:05.912Z,100.00
2023-03-19T10:48:35.055Z,100.00
2023-03-19T10:51:06.528Z,99.81
2023-03-19T10:53:35.893Z,99.44
2023-03-19T10:56:06.845Z,99.82
2023-03-19T10:58:36.275Z,100.00
2023-03-19T11:01:07.668Z,100.00
2023-03-19T11:03:37.790Z,100.00
2023-03-19T11:06:19.817Z,99.97
2023-03-19T11:08:56.264Z,100.00
2023-03-19T11:11:26.848Z,99.50
2023-03-19T11:13:54.576Z,99.25
2023-03-19T11:16:22.324Z,99.00
2023-03-19T11:18:50.939Z,98.62
2023-03-19T11:21:28.905Z,98.21
2023-03-19T11:24:02.875Z,97.45
2023-03-19T11:26:34.585Z,97.34
2023-03-19T11:29:05.954Z,96.65
2023-03-19T11:31:41.570Z,96.23
2023-03-19T11:34:21.032Z,94.30
2023-03-19T11:36:57.847Z,94.72
2023-03-19T11:39:38.886Z,95.29
2023-03-19T11:42:25.129Z,94.84
2023-03-19T11:45:03.526Z,94.98
2023-03-19T11:47:41.869Z,94.89
2023-03-19T11:50:22.122Z,94.32
2023-03-19T11:53:19.147Z,94.35
2023-03-19T11:55:53.943Z,94.00
2023-03-19T11:58:45.579Z,93.53
2023-03-19T12:01:27.130Z,91.92
2023-03-19T12:04:21.036Z,92.11
2023-03-19T12:06:57.859Z,91.68
2023-03-19T12:09:36.360Z,91.01
2023-03-19T12:12:19.618Z,90.31
2023-03-19T12:15:00.468Z,89.56
2023-03-19T12:17:45.782Z,90.16
2023-03-19T12:20:41.050Z,89.45
2023-03-19T12:23:16.422Z,89.25
2023-03-19T12:26:04.402Z,88.07
2023-03-19T12:28:33.978Z,87.22
2023-03-19T12:31:18.263Z,87.40
2023-03-19T12:33:50.383Z,86.33
2023-03-19T12:36:24.249Z,86.45
2023-03-19T12:38:57.291Z,86.94
2023-03-19T12:41:29.842Z,85.69
2023-03-19T12:44:02.983Z,85.16
2023-03-19T12:46:34.922Z,85.65
2023-03-19T12:49:08.007Z,85.98
2023-03-19T12:51:40.445Z,84.59
2023-03-19T12:54:15.105Z,83.81
2023-03-19T12:56:50.010Z,83.08
2023-03-19T12:59:25.768Z,83.00
2023-03-19T13:02:00.777Z,83.08
2023-03-19T13:04:34.055Z,83.76
2023-03-19T13:07:07.861Z,84.65
2023-03-19T13:09:41.928Z,84.42
2023-03-19T13:12:18.416Z,84.58
2023-03-19T13:14:53.864Z,85.72
2023-03-19T13:17:27.926Z,86.64
2023-03-19T13:19:56.825Z,86.55
2023-03-19T13:22:28.938Z,86.82
2023-03-19T13:24:57.950Z,86.33
2023-03-19T13:27:31.325Z,85.76
2023-03-19T13:30:16.898Z,86.32
2023-03-19T13:32:49.246Z,85.87
2023-03-19T13:35:34.649Z,85.43
2023-03-19T13:38:07.627Z,85.59
2023-03-19T13:40:44.784Z,83.92
2023-03-19T13:43:42.875Z,82.17
2023-03-19T13:46:46.099Z,80.83
2023-03-19T13:49:28.773Z,80.55
2023-03-19T13:52:01.337Z,80.09
2023-03-19T13:54:40.297Z,79.99
2023-03-19T13:57:24.856Z,80.36
2023-03-19T13:59:56.472Z,80.40
2023-03-19T14:02:48.441Z,80.77
2023-03-19T14:05:22.589Z,80.18
2023-03-19T14:07:55.964Z,79.66
2023-03-19T14:10:27.840Z,79.31
2023-03-19T14:13:10.043Z,79.70
2023-03-19T14:15:48.910Z,81.00
2023-03-19T14:18:20.103Z,81.99
2023-03-19T14:20:59.205Z,82.83
2023-03-19T14:23:39.582Z,82.41
2023-03-19T14:26:17.534Z,81.76
2023-03-19T14:28:55.762Z,82.19
2023-03-19T14:31:41.558Z,81.93
2023-03-19T14:34:22.859Z,82.32
2023-03-19T14:36:58.795Z,82.88
2023-03-19T14:39:30.031Z,83.12
2023-03-19T14:42:03.932Z,83.63
2023-03-19T14:45:16.842Z,83.29
2023-03-19T14:48:04.966Z,83.57
2023-03-19T14:51:12.902Z,84.55
2023-03-19T14:53:46.021Z,83.75
2023-03-19T14:56:17.153Z,82.64
2023-03-19T14:58:52.202Z,81.64
2023-03-19T15:01:51.928Z,81.68
2023-03-19T15:04:27.120Z,81.11
2023-03-19T15:06:58.962Z,80.24
2023-03-19T15:09:29.825Z,79.57
2023-03-19T15:12:20.728Z,78.50
2023-03-19T15:15:09.594Z,79.58
2023-03-19T15:17:38.842Z,79.68
2023-03-19T15:20:18.418Z,80.06
2023-03-19T15:22:54.932Z,80.41
2023-03-19T15:25:24.630Z,80.61
2023-03-19T15:28:09.935Z,81.70
2023-03-19T15:30:52.335Z,82.56
2023-03-19T15:33:39.008Z,82.15
2023-03-19T15:36:17.290Z,82.48
2023-03-19T15:38:48.975Z,82.41
2023-03-19T15:41:18.631Z,81.92
2023-03-19T15:43:46.938Z,81.65
2023-03-19T15:46:21.134Z,81.49
2023-03-19T15:48:53.655Z,80.98
2023-03-19T15:51:24.474Z,80.81
2023-03-19T15:53:55.881Z,79.94
2023-03-19T15:56:26.876Z,79.88
2023-03-19T15:58:58.000Z,79.93
2023-03-19T16:01:27.904Z,79.89
2023-03-19T16:04:00.257Z,80.78
2023-03-19T16:06:31.444Z,81.33
2023-03-19T16:09:16.433Z,82.17
2023-03-19T16:11:46.028Z,81.91
2023-03-19T16:14:24.133Z,82.16
2023-03-19T16:16:52.984Z,82.53
2023-03-19T16:19:36.126Z,83.23
2023-03-19T16:22:13.958Z,83.21
2023-03-19T16:24:43.429Z,83.96
2023-03-19T16:27:15.148Z,84.08
2023-03-19T16:29:48.873Z,84.67
2023-03-19T16:32:21.485Z,84.23
2023-03-19T16:34:52.123Z,82.93
2023-03-19T16:37:44.005Z,83.18
2023-03-19T16:40:40.762Z,83.42
2023-03-19T16:43:13.883Z,83.99
2023-03-19T16:45:43.219Z,84.63
2023-03-19T16:48:11.436Z,83.66
2023-03-19T16:50:40.808Z,83.82
2023-03-19T16:53:21.267Z,82.80
2023-03-19T16:55:49.670Z,82.96
2023-03-19T16:58:19.096Z,83.31
2023-03-19T17:00:48.841Z,83.51
2023-03-19T17:03:18.945Z,83.60
2023-03-19T17:05:47.915Z,84.01
2023-03-19T17:08:17.242Z,84.38
2023-03-19T17:10:49.094Z,84.32
2023-03-19T17:13:20.729Z,84.28
2023-03-19T17:15:50.324Z,84.52
2023-03-19T17:18:20.190Z,84.29
2023-03-19T17:20:53.085Z,84.09
2023-03-19T17:23:24.878Z,84.39
2023-03-19T17:25:54.897Z,84.74
2023-03-19T17:28:22.966Z,84.76
2023-03-19T17:30:51.782Z,85.21
2023-03-19T17:33:24.629Z,85.59
2023-03-19T17:35:53.394Z,86.28
2023-03-19T17:38:23.745Z,86.28
2023-03-19T17:40:51.861Z,86.60
2023-03-19T17:43:19.702Z,86.71
2023-03-19T17:45:48.435Z,86.36
2023-03-19T17:48:21.365Z,86.58
2023-03-19T17:50:49.900Z,86.49
2023-03-19T17:53:18.669Z,86.41
2023-03-19T17:55:47.809Z,86.50
2023-03-19T17:58:18.585Z,86.28
2023-03-19T18:00:48.880Z,86.33
2023-03-19T18:03:19.064Z,86.71
2023-03-19T18:05:46.949Z,87.33
2023-03-19T18:08:16.576Z,87.75
2023-03-19T18:10:44.546Z,88.03
2023-03-19T18:13:13.716Z,88.59
2023-03-19T18:15:43.925Z,88.94
2023-03-19T18:18:17.824Z,89.16
2023-03-19T18:20:46.536Z,89.55
2023-03-19T18:23:16.871Z,89.58
2023-03-19T18:25:46.092Z,90.07
2023-03-19T18:28:16.012Z,90.12
2023-03-19T18:30:45.841Z,90.62
2023-03-19T18:33:17.388Z,91.12
2023-03-19T18:35:46.508Z,91.53
2023-03-19T18:38:17.528Z,91.74
2023-03-19T18:40:45.923Z,91.96
2023-03-19T18:43:16.035Z,92.70
2023-03-19T18:45:49.356Z,92.83
2023-03-19T18:48:26.463Z,93.15
2023-03-19T18:50:55.708Z,93.21
2023-03-19T18:53:24.150Z,93.54
2023-03-19T18:55:52.211Z,94.13
2023-03-19T18:58:23.561Z,94.38
2023-03-19T19:00:54.187Z,94.17
2023-03-19T19:03:28.335Z,94.54
2023-03-19T19:05:56.210Z,94.70
2023-03-19T19:08:25.289Z,95.01
2023-03-19T19:10:56.337Z,94.89
2023-03-19T19:13:27.240Z,95.20
2023-03-19T19:15:56.830Z,95.08
2023-03-19T19:18:26.889Z,95.29
2023-03-19T19:20:55.884Z,95.44
2023-03-19T19:23:26.596Z,95.75
2023-03-19T19:25:55.142Z,95.99
2023-03-19T19:28:26.680Z,96.27
2023-03-19T19:30:57.443Z,96.42
2023-03-19T19:33:27.655Z,96.39
2023-03-19T19:35:56.275Z,96.76
2023-03-19T19:38:23.955Z,97.02
2023-03-19T19:40:54.716Z,97.39
2023-03-19T19:43:26.878Z,97.16
2023-03-19T19:45:57.853Z,96.92
2023-03-19T19:48:27.679Z,96.66
2023-03-19T19:50:56.483Z,96.46
2023-03-19T19:53:26.144Z,96.70
2023-03-19T19:55:55.369Z,97.06
2023-03-19T19:58:27.037Z,97.13
2023-03-19T20:01:03.420Z,99.77
2023-03-19T20:03:33.897Z,100.00
2023-03-19T20:06:02.934Z,100.00
2023-03-19T20:08:30.723Z,100.00
2023-03-19T20:10:58.461Z,100.00
2023-03-19T20:13:28.960Z,100.00
2023-03-19T20:16:02.031Z,100.00
2023-03-19T20:18:33.277Z,100.00
2023-03-19T20:21:01.098Z,100.00
2023-03-19T20:23:29.236Z,100.00
2023-03-19T20:25:58.144Z,100.00
2023-03-19T20:28:30.878Z,100.00
2023-03-19T20:31:01.996Z,100.00
2023-03-19T20:33:31.152Z,100.00
2023-03-19T20:35:58.888Z,100.00
2023-03-19T20:38:29.214Z,100.00
2023-03-19T20:40:58.825Z,100.00
2023-03-19T20:43:29.977Z,100.00
2023-03-19T20:46:01.794Z,100.00
2023-03-19T20:48:30.910Z,100.00
2023-03-19T20:51:01.966Z,100.00
2023-03-19T20:53:30.445Z,100.00
2023-03-19T20:55:59.951Z,100.00
2023-03-19T20:58:30.776Z,100.00
2023-03-19T21:01:00.196Z,100.00
2023-03-19T21:03:32.189Z,100.00
2023-03-19T21:06:03.892Z,100.00
2023-03-19T21:08:34.444Z,100.00
2023-03-19T21:11:02.965Z,100.00
2023-03-19T21:13:31.951Z,100.00
2023-03-19T21:16:01.879Z,100.00
2023-03-19T21:18:29.554Z,100.00
2023-03-19T21:20:58.763Z,100.00
2023-03-19T21:23:30.892Z,100.00
2023-03-19T21:26:00.874Z,100.00
2023-03-19T21:28:32.394Z,100.00
2023-03-19T21:31:02.143Z,100.00
2023-03-19T21:33:31.536Z,100.00
2023-03-19T21:36:00.758Z,100.00
2023-03-19T21:38:29.354Z,100.00
2023-03-19T21:41:01.240Z,100.00
2023-03-19T21:43:33.434Z,100.00
2023-03-19T21:46:17.384Z,100.00
2023-03-19T21:48:51.812Z,100.00
2023-03-19T21:51:19.644Z,100.00
2023-03-19T21:53:47.542Z,100.00
2023-03-19T21:56:22.301Z,100.00
2023-03-19T21:58:51.964Z,100.00
2023-03-19T22:01:23.510Z,100.00
2023-03-19T22:03:52.500Z,100.00
2023-03-19T22:06:21.877Z,100.00
2023-03-19T22:08:54.942Z,100.00
2023-03-19T22:11:26.900Z,100.00
2023-03-19T22:13:58.470Z,100.00
2023-03-19T22:16:28.884Z,100.00
2023-03-19T22:18:57.984Z,100.00
2023-03-19T22:21:25.589Z,100.00
2023-03-19T22:23:53.214Z,100.00
2023-03-19T22:26:31.850Z,100.00
2023-03-19T22:29:01.898Z,100.00
2023-03-19T22:31:31.959Z,100.00
2023-03-19T22:34:00.455Z,100.00
2023-03-19T22:36:29.046Z,100.00
2023-03-19T22:38:57.899Z,100.00
2023-03-19T22:41:30.136Z,100.00
2023-03-19T22:43:59.116Z,100.00
2023-03-19T22:46:27.635Z,100.00
2023-03-19T22:48:56.784Z,100.00
2023-03-19T22:51:28.070Z,100.00
2023-03-19T22:53:57.376Z,100.00
2023-03-19T22:56:24.958Z,100.00
2023-03-19T22:58:52.931Z,100.00
2023-03-19T23:01:31.265Z,100.00
2023-03-19T23:04:15.764Z,100.00
2023-03-19T23:06:44.354Z,100.00
2023-03-19T23:09:16.419Z,100.00
2023-03-19T23:11:44.012Z,100.00
2023-03-19T23:14:26.040Z,100.00
2023-03-19T23:16:56.782Z,100.00
2023-03-19T23:19:29.036Z,100.00
2023-03-19T23:21:58.995Z,100.00
2023-03-19T23:24:28.036Z,100.00
2023-03-19T23:26:58.953Z,100.00
2023-03-19T23:29:31.307Z,100.00
2023-03-19T23:31:59.358Z,100.00
2023-03-19T23:34:29.349Z,100.00
2023-03-19T23:36:59.785Z,100.00
2023-03-19T23:39:28.764Z,100.00
2023-03-19T23:41:59.026Z,100.00
2023-03-19T23:44:28.808Z,100.00
2023-03-19T23:46:59.812Z,100.00
2023-03-19T23:49:32.096Z,100.00
2023-03-19T23:52:00.523Z,100.00
2023-03-19T23:54:30.533Z,100.00
2023-03-19T23:57:00.967Z,100.00
2023-03-19T23:59:37.783Z,100.00
